Terminal Aerodrome Forecast
Issued by NWS Twin Cities, MN

Home | Current Version | Previous Version | Graphics & Text | Print | Product List | Glossary On
Versions: 1 2 3 4 5 6 7 8 9 10 11 12 13 14 15 16 17 18 19 20 21 22 23 24 25 26 27 28
000
FTUS43 KMPX 211120
TAFMSP
TAF
KMSP 211120Z 2112/2218 09005KT P6SM VCTS SCT040CB BKN110
      TEMPO 2113/2115 5SM -TSRA BKN040CB
     FM211500 10006KT P6SM SCT025 BKN120
     FM212100 13006KT P6SM -SHRA SCT025 BKN040 PROB30 2121/2202 4SM
      TSRA OVC030CB
     FM220200 34006KT P6SM SCT030 BKN050 OVC200
     FM220800 34006KT P6SM SCT250
     FM221600 32010KT P6SM FEW050=

USA.gov is the U.S. government's official web portal to all federal, state and local government web resources and services.